EW1079 Weather Reports


Display with metric or nautical units.
time (UTC)temp
F
wind
direction
speed
MPH
gust
MPH
rain 1hr
in
rain 24hr
in
rain mn
in
humidity
%
barometer
mb
20180921151516 83 236 9.0 17.0 0.00 0.00 0.00 36 1006.5
20180921151015 83 232 9.0 17.0 0.00 0.00 0.00 35 1006.5
20180921144515 84 225 9.0 24.0 0.00 0.00 0.00 33 1006.5
20180921144015 84 227 10.0 21.0 0.00 0.00 0.00 37 1006.7
20180921143516 84 227 9.0 21.0 0.00 0.00 0.00 37 1006.8
20180921143016 84 224 9.0 19.0 0.00 0.00 0.00 37 1006.8
20180921142516 84 222 9.0 19.0 0.00 0.00 0.00 37 1006.8
20180921142012 84 226 7.0 16.0 0.00 0.00 0.00 37 1006.9
20180921141015 84 239 12.0 22.0 0.00 0.00 0.00 37 1007.0
20180921140516 84 237 12.0 22.0 0.00 0.00 0.00 37 1007.0
20180921140015 84 230 10.0 18.0 0.00 0.00 0.00 36 1007.1
20180921135015 84 227 8.0 18.0 0.00 0.00 0.00 36 1007.1
20180921133516 84 217 9.0 15.0 0.00 0.00 0.00 40 1007.5
20180921132516 84 230 10.0 21.0 0.00 0.00 0.00 41 1007.7
20180921131515 84 234 9.0 15.0 0.00 0.00 0.00 43 1007.8
20180921131015 83 232 10.0 17.0 0.00 0.00 0.00 45 1007.9
20180921130015 81 224 10.0 18.0 0.00 0.00 0.00 46 1008.1
20180921125515 81 225 9.0 18.0 0.00 0.00 0.00 46 1008.2
20180921123515 83 211 7.0 15.0 0.00 0.00 0.00 44 1008.3
20180921122515 83 209 7.0 14.0 0.00 0.00 0.00 45 1008.4
20180921122015 83 205 7.0 18.0 0.00 0.00 0.00 46 1008.5
20180921121516 82 192 7.0 18.0 0.00 0.00 0.00 47 1008.6
20180921121016 81 183 8.0 16.0 0.00 0.00 0.00 47 1008.6
20180921115515 81 191 8.0 16.0 0.00 0.00 0.00 48 1008.9
20180921115016 81 210 8.0 16.0 0.00 0.00 0.00 49 1009.0
20180921113015 80 213 7.0 15.0 0.00 0.00 0.00 49 1009.4
20180921112515 80 201 7.0 16.0 0.00 0.00 0.00 51 1009.5
20180921112015 80 200 8.0 21.0 0.00 0.00 0.00 51 1009.6
20180921111016 80 200 7.0 19.0 0.00 0.00 0.00 50 1009.6
20180921110015 80 209 8.0 14.0 0.00 0.00 0.00 49 1009.8
20180921104515 80 205 5.0 12.0 0.00 0.00 0.00 51 1010.1
20180921104015 79 205 6.0 15.0 0.00 0.00 0.00 52 1010.0
20180921103515 79 211 7.0 15.0 0.00 0.00 0.00 51 1010.1
20180921103015 79 213 6.0 15.0 0.00 0.00 0.00 51 1010.1
20180921102016 78 203 7.0 16.0 0.00 0.00 0.00 51 1010.4
20180921101015 79 205 8.0 16.0 0.00 0.00 0.00 51 1010.8
20180921100514 79 196 7.0 16.0 0.00 0.00 0.00 51 1010.7
20180921095515 79 217 7.0 15.0 0.00 0.00 0.00 52 1011.0
20180921095016 79 214 6.0 14.0 0.00 0.00 0.00 52 1011.0
20180921093515 78 201 7.0 21.0 0.00 0.00 0.00 53 1011.1
20180921092515 78 197 5.0 14.0 0.00 0.00 0.00 54 1011.2
20180921092015 77 201 7.0 19.0 0.00 0.00 0.00 55 1011.3
20180921091015 77 207 7.0 21.0 0.00 0.00 0.00 56 1011.4
20180921090015 77 202 6.0 12.0 0.00 0.00 0.00 58 1011.6
20180921085515 76 199 6.0 13.0 0.00 0.00 0.00 57 1011.7
20180921083014 76 199 8.0 21.0 0.00 0.00 0.00 58 1011.9
20180921082515 76 209 8.0 17.0 0.00 0.00 0.00 58 1011.9
20180921082015 76 216 9.0 20.0 0.00 0.00 0.00 59 1012.0
20180921081514 76 225 9.0 20.0 0.00 0.00 0.00 58 1012.1
20180921081015 76 226 10.0 19.0 0.00 0.00 0.00 59 1012.2
20180921080515 75 223 10.0 19.0 0.00 0.00 0.00 58 1012.2
20180921075515 76 226 10.0 19.0 0.00 0.00 0.00 58 1012.3
20180921074515 76 208 6.0 14.0 0.00 0.00 0.00 56 1012.3
20180921074015 76 203 6.0 17.0 0.00 0.00 0.00 57 1012.2
20180921073014 75 212 7.0 19.0 0.00 0.00 0.00 58 1012.2
20180921071515 75 194 5.0 12.0 0.00 0.00 0.00 58 1012.3
20180921070515 75 188 5.0 15.0 0.00 0.00 0.00 58 1012.3
20180921065015 74 220 5.0 12.0 0.00 0.00 0.00 59 1012.4
20180921064014 74 176 3.0 9.0 0.00 0.00 0.00 59 1012.6
20180921061515 72 165 2.0 8.0 0.00 0.00 0.00 61 1012.5
20180921060515 72 125 3.0 7.0 0.00 0.00 0.00 61 1012.5
20180921055515 71 133 1.0 5.0 0.00 0.00 0.00 62 1012.6
20180921054515 71 112 3.0 12.0 0.00 0.00 0.00 62 1012.6
20180921054015 71 104 2.0 9.0 0.00 0.00 0.00 63 1012.8
20180921053015 70 133 2.0 11.0 0.00 0.00 0.00 63 1012.7
20180921052514 70 135 3.0 11.0 0.00 0.00 0.00 63 1012.8
20180921051515 69 183 3.0 9.0 0.00 0.00 0.00 64 1012.8
20180921051014 69 191 2.0 9.0 0.00 0.00 0.00 65 1012.8
20180921050515 69 192 1.0 4.0 0.00 0.00 0.00 64 1012.9
20180921050015 69 212 3.0 7.0 0.00 0.00 0.00 63 1012.8
20180921044514 70 216 4.0 9.0 0.00 0.00 0.00 62 1012.9
20180921044015 70 218 5.0 10.0 0.00 0.00 0.00 63 1013.0
20180921041514 69 215 4.0 10.0 0.00 0.00 0.00 63 1013.2
20180921040515 69 201 1.0 4.0 0.00 0.00 0.00 65 1013.3
20180921035515 69 204 3.0 8.0 0.00 0.00 0.00 63 1013.2
20180921035015 69 193 2.0 7.0 0.00 0.00 0.00 64 1013.3
20180921034511 69 165 2.0 5.0 0.00 0.00 0.00 63 1013.4
20180921033514 69 165 2.0 5.0 0.00 0.00 0.00 63 1013.4
20180921032014 69 156 2.0 5.0 0.00 0.00 0.00 64 1013.5
20180921031514 68 158 2.0 6.0 0.00 0.00 0.00 65 1013.5
20180921030515 67 167 3.0 8.0 0.00 0.00 0.00 66 1013.6
20180921030014 67 162 3.0 8.0 0.00 0.00 0.00 66 1013.6
20180921024015 66 217 0.0 4.0 0.00 0.00 0.00 69 1013.8
20180921023515 66 220 1.0 4.0 0.00 0.00 0.00 68 1013.8
20180921022514 68 207 1.0 4.0 0.00 0.00 0.00 65 1013.9
20180921021514 69 216 1.0 4.0 0.00 0.00 0.00 63 1013.9
20180921020515 70 233 3.0 6.0 0.00 0.00 0.00 61 1014.1
20180921015515 70 222 3.0 8.0 0.00 0.00 0.00 61 1014.2
20180921014514 70 221 3.0 8.0 0.00 0.00 0.00 61 1014.3
20180921014015 70 218 4.0 8.0 0.00 0.00 0.00 60 1014.3
20180921013514 70 224 4.0 8.0 0.00 0.00 0.00 61 1014.3
20180921010514 70 162 1.0 5.0 0.00 0.00 0.00 61 1014.4
20180921010018 70 179 1.0 5.0 0.00 0.00 0.00 61 1014.5
20180921005514 70 187 1.0 4.0 0.00 0.00 0.00 61 1014.5
20180921005015 70 191 1.0 4.0 0.00 0.00 0.00 61 1014.5
20180921003514 70 212 1.0 3.0 0.00 0.00 0.00 61 1014.6
20180921003014 71 209 1.0 4.0 0.00 0.00 0.00 60 1014.7
20180921002514 71 205 1.0 4.0 0.00 0.00 0.00 61 1014.7
20180921002014 70 165 1.0 4.0 0.00 0.00 0.00 61 1014.7
20180921000515 71 220 2.0 7.0 0.00 0.00 0.00 60 1014.9
20180921000015 71 225 2.0 5.0 0.00 0.00 0.00 61 1014.9
20180920235514 71 210 2.0 5.0 0.00 0.00 0.00 61 1014.9
20180920235014 71 199 1.0 5.0 0.00 0.00 0.00 60 1015.0
20180920233514 71 203 2.0 5.0 0.00 0.00 0.00 60 1015.1
20180920232520 71 195 1.0 5.0 0.00 0.00 0.00 60 1015.3
20180920231514 71 186 2.0 7.0 0.00 0.00 0.00 60 1015.4
20180920231014 71 169 3.0 7.0 0.00 0.00 0.00 60 1015.3
20180920230014 71 168 2.0 5.0 0.00 0.00 0.00 60 1015.3
20180920225514 71 163 2.0 4.0 0.00 0.00 0.00 60 1015.4
20180920224514 71 151 2.0 4.0 0.00 0.00 0.00 59 1015.4
20180920224015 71 159 2.0 4.0 0.00 0.00 0.00 59 1015.4
20180920223514 71 177 1.0 4.0 0.00 0.00 0.00 59 1015.5
20180920222514 72 189 1.0 3.0 0.00 0.00 0.00 58 1015.6
20180920222015 72 177 1.0 5.0 0.00 0.00 0.00 58 1015.6
20180920220514 72 171 1.0 5.0 0.00 0.00 0.00 58 1015.7
20180920220031 72 174 1.0 5.0 0.00 0.00 0.00 58 1015.7
20180920215014 72 204 2.0 5.0 0.00 0.00 0.00 57 1015.8
20180920213014 73 203 1.0 4.0 0.00 0.00 0.00 56 1015.9
20180920212514 73 208 1.0 4.0 0.00 0.00 0.00 56 1015.9
20180920212014 73 215 3.0 6.0 0.00 0.00 0.00 56 1016.1
20180920211514 74 223 3.0 9.0 0.00 0.00 0.00 56 1016.2
20180920211015 74 225 3.0 9.0 0.00 0.00 0.00 55 1016.1
20180920210514 74 220 3.0 8.0 0.00 0.00 0.00 55 1016.1
20180920210014 74 210 2.0 7.0 0.00 0.00 0.00 54 1016.0
20180920204510 75 182 4.0 11.0 0.00 0.00 0.00 53 1016.1
20180920204014 75 179 5.0 13.0 0.00 0.00 0.00 53 1016.2
20180920203515 75 178 5.0 13.0 0.00 0.00 0.00 53 1016.1
20180920202014 75 189 3.0 7.0 0.00 0.00 0.00 53 1016.3
20180920201014 75 202 3.0 12.0 0.00 0.00 0.00 53 1016.3
20180920200514 75 194 3.0 12.0 0.00 0.00 0.00 53 1016.3
20180920200014 75 192 3.0 9.0 0.00 0.00 0.00 53 1016.2
20180920195514 75 202 3.0 9.0 0.00 0.00 0.00 53 1016.2
20180920195014 75 199 3.0 9.0 0.00 0.00 0.00 53 1016.2
20180920194514 75 197 4.0 9.0 0.00 0.00 0.00 53 1016.3
20180920193014 75 171 3.0 10.0 0.00 0.00 0.00 53 1016.2
20180920192514 75 174 4.0 10.0 0.00 0.00 0.00 53 1016.2
20180920192014 75 172 4.0 10.0 0.00 0.00 0.00 53 1016.3
20180920191514 75 167 4.0 11.0 0.00 0.00 0.00 53 1016.3
20180920191015 75 171 3.0 11.0 0.00 0.00 0.00 54 1016.4
20180920190514 75 173 4.0 11.0 0.00 0.00 0.00 55 1016.3
20180920190014 74 171 3.0 9.0 0.00 0.00 0.00 55 1016.3
20180920185513 74 196 3.0 7.0 0.00 0.00 0.00 55 1016.4
20180920185014 74 224 3.0 6.0 0.00 0.00 0.00 56 1016.4
20180920184513 74 232 3.0 5.0 0.00 0.00 0.00 56 1016.4
20180920184014 73 233 2.0 5.0 0.00 0.00 0.00 56 1016.5
20180920183014 73 188 1.0 4.0 0.00 0.00 0.00 57 1016.4
20180920181514 73 163 0.0 2.0 0.00 0.00 0.00 57 1016.4
20180920180514 74 178 0.0 3.0 0.00 0.00 0.00 56 1016.3
20180920175014 75 203 0.0 2.0 0.00 0.00 0.00 54 1016.4
20180920174514 75 193 0.0 2.0 0.00 0.00 0.00 53 1016.4
20180920174014 75 213 1.0 4.0 0.00 0.00 0.00 53 1016.4
20180920172014 76 168 0.0 3.0 0.00 0.00 0.00 52 1016.4
20180920165010 78 183 0.0 3.0 0.00 0.00 0.00 49 1016.4
20180920164513 78 214 1.0 4.0 0.00 0.00 0.00 49 1016.4
20180920164013 78 222 1.0 4.0 0.00 0.00 0.00 49 1016.5
20180920163014 79 199 2.0 5.0 0.00 0.00 0.00 48 1016.4
20180920162513 79 198 2.0 7.0 0.00 0.00 0.00 47 1016.4
20180920162014 80 207 2.0 8.0 0.00 0.00 0.00 47 1016.4
20180920161513 80 214 3.0 8.0 0.00 0.00 0.00 47 1016.5
20180920160514 80 200 2.0 12.0 0.00 0.00 0.00 46 1016.6
20180920160014 80 194 2.0 7.0 0.00 0.00 0.00 47 1016.6
20180920155513 81 175 3.0 8.0 0.00 0.00 0.00 46 1016.6
20180920155014 81 184 3.0 9.0 0.00 0.00 0.00 46 1016.7
20180920154514 81 186 3.0 10.0 0.00 0.00 0.00 46 1016.6
20180920154014 81 199 4.0 12.0 0.00 0.00 0.00 45 1016.7
20180920152513 82 203 1.0 4.0 0.00 0.00 0.00 45 1016.7
20180920152014 82 234 3.0 10.0 0.00 0.00 0.00 45 1016.7